Time;durP1;ratioP1;P1;durP2;ratioP2;P2;SDS_P1;SDS_P2;PMS_P1;PMS_P2;Temp;Humidity;BMP_temperature;BMP_pressure;BME280_temperature;BME280_humidity;BME280_pressure;Samples;Min_cycle;Max_cycle;Signal;HPM_P1;HPM_P2
2024/03/06 00:01:45;;;;;;;11.70;5.93;;;6.10;99.90;;;;;;5064168;28;20450;-68
2024/03/06 00:04:13;;;;;;;12.57;5.80;;;6.10;99.90;;;;;;5058058;28;20471;-67
2024/03/06 00:06:45;;;;;;;15.17;6.80;;;6.10;99.90;;;;;;5064713;28;20520;-67
2024/03/06 00:09:13;;;;;;;13.70;6.33;;;6.00;99.90;;;;;;5054780;28;20992;-68
2024/03/06 00:11:41;;;;;;;10.73;5.00;;;6.10;99.90;;;;;;5063783;28;20557;-68
2024/03/06 00:14:10;;;;;;;12.37;5.07;;;6.10;99.90;;;;;;5064677;28;21162;-67
2024/03/06 00:16:38;;;;;;;11.17;5.30;;;6.20;99.90;;;;;;5064162;28;20492;-67
2024/03/06 00:19:06;;;;;;;12.40;5.23;;;6.20;99.90;;;;;;5061016;28;21024;-67
2024/03/06 00:21:36;;;;;;;12.10;5.37;;;6.30;99.90;;;;;;5059382;28;20459;-68
2024/03/06 00:24:05;;;;;;;14.17;5.30;;;6.20;99.90;;;;;;5055551;28;20800;-68
2024/03/06 00:26:33;;;;;;;10.43;4.40;;;6.10;99.90;;;;;;5065514;28;20999;-68
2024/03/06 00:29:02;;;;;;;15.03;5.20;;;6.20;99.90;;;;;;5066152;28;20544;-67
2024/03/06 00:31:30;;;;;;;12.40;4.63;;;6.10;99.90;;;;;;5068466;28;20873;-67
2024/03/06 00:33:58;;;;;;;10.10;4.23;;;6.10;99.90;;;;;;5069624;28;20448;-67
2024/03/06 00:36:26;;;;;;;12.80;5.30;;;6.10;99.90;;;;;;5069286;28;21207;-67
2024/03/06 00:38:54;;;;;;;12.07;4.90;;;6.10;99.90;;;;;;5061945;28;20467;-67
2024/03/06 00:41:23;;;;;;;11.60;5.30;;;6.00;99.90;;;;;;5050172;28;20445;-67
2024/03/06 00:43:51;;;;;;;13.80;5.13;;;5.90;99.90;;;;;;5049738;28;20444;-68
2024/03/06 00:46:19;;;;;;;12.27;5.80;;;5.90;99.90;;;;;;5050700;28;20452;-67
2024/03/06 00:48:47;;;;;;;11.40;5.27;;;6.00;99.90;;;;;;5050396;28;20583;-68
2024/03/06 00:51:15;;;;;;;13.63;5.40;;;6.10;99.90;;;;;;5066581;28;20454;-68
2024/03/06 00:53:43;;;;;;;10.33;4.57;;;6.10;99.90;;;;;;5069001;28;20546;-68
2024/03/06 00:56:11;;;;;;;11.40;5.30;;;6.10;99.90;;;;;;5064010;28;20526;-68
2024/03/06 00:58:40;;;;;;;13.00;5.50;;;6.10;99.90;;;;;;5069563;28;20454;-68
2024/03/06 01:01:09;;;;;;;11.50;5.70;;;6.10;99.90;;;;;;5068173;28;20534;-69
2024/03/06 01:03:38;;;;;;;14.30;5.47;;;6.10;99.90;;;;;;5049828;28;20942;-68
2024/03/06 01:06:06;;;;;;;11.07;5.00;;;6.00;99.90;;;;;;5060368;28;20589;-68
2024/03/06 01:08:34;;;;;;;11.77;4.93;;;5.90;99.90;;;;;;5069654;28;20494;-69
2024/03/06 01:11:03;;;;;;;12.07;6.17;;;5.90;99.90;;;;;;5068599;28;20508;-68
2024/03/06 01:13:31;;;;;;;11.03;4.80;;;5.80;99.90;;;;;;5057224;28;20459;-68
2024/03/06 01:16:00;;;;;;;12.13;5.27;;;5.80;99.90;;;;;;5049646;28;20982;-69
2024/03/06 01:18:28;;;;;;;14.00;6.17;;;5.80;99.90;;;;;;5061239;28;20475;-70
2024/03/06 01:20:57;;;;;;;10.87;4.93;;;5.80;99.90;;;;;;5064088;28;20464;-68
2024/03/06 01:23:25;;;;;;;11.63;5.67;;;5.80;99.90;;;;;;5067879;28;20882;-67
2024/03/06 01:25:53;;;;;;;11.93;5.57;;;5.80;99.90;;;;;;5069066;28;20455;-68
2024/03/06 01:28:21;;;;;;;12.90;5.53;;;5.80;99.90;;;;;;5068456;28;20578;-68
2024/03/06 01:30:49;;;;;;;10.77;5.50;;;5.80;99.90;;;;;;5061306;28;20498;-68
2024/03/06 01:33:18;;;;;;;12.07;6.27;;;5.70;99.90;;;;;;5047941;28;20543;-68
2024/03/06 01:35:46;;;;;;;11.40;5.37;;;5.60;99.90;;;;;;5053181;28;20448;-69
2024/03/06 01:38:15;;;;;;;12.47;5.53;;;5.60;99.90;;;;;;5065893;28;20466;-68
2024/03/06 01:40:45;;;;;;;12.13;6.30;;;5.70;99.90;;;;;;5068028;28;20541;-67
2024/03/06 01:43:23;;;;;;;10.60;5.30;;;5.80;99.90;;;;;;5067498;28;20459;-69
2024/03/06 01:45:52;;;;;;;12.97;7.53;;;5.80;99.90;;;;;;5053577;28;20444;-67
2024/03/06 01:48:25;;;;;;;12.90;6.00;;;5.80;99.90;;;;;;5048848;28;20872;-68
2024/03/06 01:50:56;;;;;;;13.93;6.60;;;5.70;99.90;;;;;;5064828;28;20539;-67
2024/03/06 01:53:25;;;;;;;13.77;6.77;;;5.70;99.90;;;;;;5063866;28;21195;-67
2024/03/06 01:55:53;;;;;;;14.97;7.37;;;5.80;99.90;;;;;;5051553;28;20819;-69
2024/03/06 01:58:22;;;;;;;13.80;7.07;;;5.80;99.90;;;;;;5048933;28;20471;-68
2024/03/06 02:00:50;;;;;;;13.40;7.10;;;5.70;99.90;;;;;;5064716;28;20462;-69
2024/03/06 02:03:19;;;;;;;12.47;7.43;;;5.70;99.90;;;;;;5068687;28;20451;-68
2024/03/06 02:05:50;;;;;;;12.47;6.30;;;5.70;99.90;;;;;;5064039;28;20911;-68
2024/03/06 02:08:18;;;;;;;13.00;6.83;;;5.70;99.90;;;;;;5067927;28;20470;-67
2024/03/06 02:10:46;;;;;;;13.23;6.97;;;5.50;99.90;;;;;;5062422;28;20451;-68
2024/03/06 02:13:15;;;;;;;14.20;7.20;;;5.50;99.90;;;;;;5068686;28;21051;-68
2024/03/06 02:15:45;;;;;;;13.40;7.27;;;5.50;99.90;;;;;;5062735;28;20505;-68
2024/03/06 02:18:13;;;;;;;11.03;6.47;;;5.50;99.90;;;;;;5068419;28;21330;-67
2024/03/06 02:20:42;;;;;;;15.40;7.70;;;5.40;99.90;;;;;;5067701;28;20971;-67
2024/03/06 02:23:10;;;;;;;13.33;6.63;;;5.40;99.90;;;;;;5060766;28;20536;-69
2024/03/06 02:25:38;;;;;;;16.00;6.73;;;5.30;99.90;;;;;;5063135;28;20507;-68
2024/03/06 02:28:06;;;;;;;15.57;6.57;;;5.30;99.90;;;;;;5053770;28;20509;-68
2024/03/06 02:30:36;;;;;;;13.10;6.17;;;5.20;99.90;;;;;;5068204;28;20486;-68
2024/03/06 02:33:06;;;;;;;13.07;6.73;;;5.20;99.90;;;;;;5067574;28;20486;-68
2024/03/06 02:35:35;;;;;;;12.23;6.03;;;5.30;99.90;;;;;;5067594;28;20453;-68
2024/03/06 02:38:05;;;;;;;14.90;7.00;;;5.40;99.90;;;;;;5067958;28;20467;-68
2024/03/06 02:40:34;;;;;;;13.73;6.43;;;5.40;99.90;;;;;;5053373;28;20526;-68
2024/03/06 02:43:02;;;;;;;12.93;6.27;;;5.40;99.90;;;;;;5062098;28;21120;-68
2024/03/06 02:45:30;;;;;;;12.53;5.90;;;5.50;99.90;;;;;;5067174;28;20877;-68
2024/03/06 02:47:58;;;;;;;12.33;5.70;;;5.50;99.90;;;;;;5065280;28;20477;-68
2024/03/06 02:50:26;;;;;;;12.40;6.30;;;5.50;99.90;;;;;;5067447;28;20927;-69
2024/03/06 02:52:54;;;;;;;15.07;6.20;;;5.50;99.90;;;;;;5067547;28;20467;-68
2024/03/06 02:55:24;;;;;;;12.13;5.97;;;5.50;99.90;;;;;;5060423;28;20515;-69
2024/03/06 02:57:52;;;;;;;13.53;6.30;;;5.50;99.90;;;;;;5067237;28;20984;-68
2024/03/06 03:00:21;;;;;;;12.00;6.10;;;5.50;99.90;;;;;;5060713;28;20550;-68
2024/03/06 03:02:49;;;;;;;14.13;6.20;;;5.40;99.90;;;;;;5067253;28;20450;-69
2024/03/06 03:05:17;;;;;;;13.43;6.07;;;5.50;99.90;;;;;;5067632;28;20502;-68
2024/03/06 03:07:45;;;;;;;12.80;6.27;;;5.40;99.90;;;;;;5066359;28;20484;-68
2024/03/06 03:10:13;;;;;;;12.77;5.87;;;5.50;99.90;;;;;;5066850;28;20486;-69
2024/03/06 03:12:43;;;;;;;13.73;6.37;;;5.50;99.90;;;;;;5062852;28;20471;-69
2024/03/06 03:15:11;;;;;;;13.63;6.43;;;5.40;99.90;;;;;;5066802;28;20484;-68
2024/03/06 03:17:39;;;;;;;11.50;6.03;;;5.50;99.90;;;;;;5066384;28;20471;-69
2024/03/06 03:20:10;;;;;;;12.03;6.30;;;5.40;99.90;;;;;;5066324;28;21104;-68
2024/03/06 03:22:39;;;;;;;10.97;5.73;;;5.40;99.90;;;;;;5061958;28;20456;-69
2024/03/06 03:25:09;;;;;;;11.50;6.20;;;5.50;99.90;;;;;;5062742;28;20459;-68
2024/03/06 03:27:38;;;;;;;14.63;6.00;;;5.50;99.90;;;;;;5066996;28;20451;-68
2024/03/06 03:30:09;;;;;;;12.07;6.53;;;5.50;99.90;;;;;;5050042;28;20570;-68
2024/03/06 03:32:38;;;;;;;12.07;6.10;;;5.60;99.90;;;;;;5064979;28;20471;-68
2024/03/06 03:35:07;;;;;;;15.80;5.93;;;5.60;99.90;;;;;;5066640;28;20947;-68
2024/03/06 03:37:35;;;;;;;12.20;5.97;;;5.70;99.90;;;;;;5064251;28;20525;-67
2024/03/06 03:40:03;;;;;;;11.00;5.80;;;5.60;99.90;;;;;;5058746;28;20472;-68
2024/03/06 03:42:32;;;;;;;12.30;5.90;;;5.70;99.90;;;;;;5050744;28;20858;-67
2024/03/06 03:45:00;;;;;;;11.87;5.27;;;5.80;99.90;;;;;;5047146;28;20479;-67
2024/03/06 03:47:29;;;;;;;13.90;5.80;;;5.80;99.90;;;;;;5053201;28;20456;-68
2024/03/06 03:49:57;;;;;;;11.77;4.77;;;5.90;99.90;;;;;;5046929;28;20487;-68
2024/03/06 03:52:41;;;;;;;9.43;4.90;;;5.80;99.90;;;;;;5065550;28;20498;-69
2024/03/06 03:55:09;;;;;;;9.73;4.57;;;5.80;99.90;;;;;;5066302;28;20556;-67
2024/03/06 03:57:37;;;;;;;10.33;5.20;;;5.80;99.90;;;;;;5066738;28;21008;-67
2024/03/06 04:00:10;;;;;;;10.87;5.20;;;5.80;99.90;;;;;;5066623;28;20559;-67
2024/03/06 04:02:40;;;;;;;9.53;4.73;;;5.70;99.90;;;;;;5047937;28;20463;-68
2024/03/06 04:05:10;;;;;;;10.57;5.07;;;5.60;99.90;;;;;;5052901;28;20557;-67
2024/03/06 04:07:38;;;;;;;12.10;4.93;;;5.60;99.90;;;;;;5048208;28;20468;-67
2024/03/06 04:10:10;;;;;;;10.60;5.10;;;5.60;99.90;;;;;;5063540;28;20837;-67
2024/03/06 04:12:39;;;;;;;13.30;6.80;;;5.60;99.90;;;;;;5046903;28;20450;-69
2024/03/06 04:15:08;;;;;;;13.07;5.27;;;5.60;99.90;;;;;;5051000;28;20445;-68
2024/03/06 04:17:36;;;;;;;11.20;5.10;;;5.70;99.90;;;;;;5053300;28;20503;-66
2024/03/06 04:20:07;;;;;;;10.70;4.80;;;5.70;99.90;;;;;;5052065;28;20893;-68
2024/03/06 04:22:35;;;;;;;11.13;5.50;;;5.80;99.90;;;;;;5058652;28;20919;-67
2024/03/06 04:25:04;;;;;;;11.57;5.17;;;5.80;99.90;;;;;;5064342;28;20479;-67
2024/03/06 04:27:33;;;;;;;11.50;5.23;;;5.70;99.90;;;;;;5057929;28;20482;-68
2024/03/06 04:30:00;;;;;;;11.47;5.13;;;5.60;99.90;;;;;;5060894;28;20548;-68
2024/03/06 04:32:28;;;;;;;11.17;5.13;;;5.60;99.90;;;;;;5065213;28;20565;-68
2024/03/06 04:34:57;;;;;;;12.50;6.03;;;5.60;99.90;;;;;;5061112;28;20971;-68
2024/03/06 04:37:26;;;;;;;14.10;5.23;;;5.50;99.90;;;;;;5052481;28;21023;-68
2024/03/06 04:39:54;;;;;;;10.20;4.60;;;5.70;99.90;;;;;;5064608;28;20475;-68
2024/03/06 04:42:22;;;;;;;11.93;4.93;;;5.70;99.90;;;;;;5064729;28;20549;-68
2024/03/06 04:44:50;;;;;;;11.47;4.57;;;5.70;99.90;;;;;;5060962;28;20544;-68
2024/03/06 04:47:19;;;;;;;10.30;4.80;;;5.70;99.90;;;;;;5065487;28;20607;-68
2024/03/06 04:49:47;;;;;;;10.90;4.47;;;5.80;99.90;;;;;;5065417;28;20466;-68
2024/03/06 04:52:15;;;;;;;10.60;4.60;;;5.80;99.90;;;;;;5064438;28;20566;-67
2024/03/06 04:54:44;;;;;;;10.67;4.53;;;5.70;99.90;;;;;;5063055;28;21005;-68
2024/03/06 04:57:12;;;;;;;12.43;4.50;;;5.80;99.90;;;;;;5066203;28;20984;-68
2024/03/06 04:59:40;;;;;;;12.17;5.30;;;5.80;99.90;;;;;;5065377;28;20544;-67
2024/03/06 05:02:08;;;;;;;11.60;5.10;;;5.80;99.90;;;;;;5065611;28;20475;-68
2024/03/06 05:04:37;;;;;;;10.70;5.10;;;5.90;99.90;;;;;;5065834;28;20461;-67
2024/03/06 05:07:23;;;;;;;10.00;4.50;;;5.90;99.90;;;;;;5064381;28;20536;-67
2024/03/06 05:10:10;;;;;;;12.10;5.10;;;5.90;99.90;;;;;;5064275;28;20505;-68
2024/03/06 05:12:55;;;;;;;12.90;5.80;;;5.90;99.90;;;;;;5053633;28;20576;-68
2024/03/06 05:15:42;;;;;;;10.90;4.57;;;5.90;99.90;;;;;;5058812;28;20700;-68
2024/03/06 05:18:27;;;;;;;11.70;5.43;;;5.80;99.90;;;;;;5066061;28;20482;-68
2024/03/06 05:21:13;;;;;;;9.90;4.70;;;5.70;99.90;;;;;;5049169;28;20437;-69
2024/03/06 05:23:58;;;;;;;10.50;4.27;;;5.70;99.90;;;;;;5061036;28;20462;-66
2024/03/06 05:26:45;;;;;;;9.80;4.23;;;5.70;99.90;;;;;;5056528;28;20555;-69
2024/03/06 05:29:31;;;;;;;12.17;5.03;;;5.70;99.90;;;;;;5063722;28;20546;-69
2024/03/06 05:32:17;;;;;;;12.73;4.90;;;5.80;99.90;;;;;;5068829;28;20458;-69
2024/03/06 05:35:03;;;;;;;13.60;4.90;;;5.80;99.90;;;;;;5064944;28;20675;-69
2024/03/06 05:37:49;;;;;;;14.23;5.00;;;5.80;99.90;;;;;;5064806;28;21102;-70
2024/03/06 05:40:37;;;;;;;10.30;4.53;;;5.70;99.90;;;;;;5063028;28;21210;-71
2024/03/06 05:43:24;;;;;;;11.20;4.53;;;5.70;99.90;;;;;;5065517;28;20465;-70
2024/03/06 05:46:09;;;;;;;12.33;5.47;;;5.70;99.90;;;;;;5069124;28;20473;-70
2024/03/06 05:48:55;;;;;;;11.47;4.77;;;5.70;99.90;;;;;;5065666;28;20592;-70
2024/03/06 05:51:41;;;;;;;12.40;6.03;;;5.70;99.90;;;;;;5060585;28;20851;-70
2024/03/06 05:54:27;;;;;;;12.87;5.47;;;5.80;99.90;;;;;;5066610;28;20470;-69
2024/03/06 05:57:12;;;;;;;13.40;5.30;;;5.80;99.90;;;;;;5064997;28;20469;-69
2024/03/06 05:59:59;;;;;;;11.60;5.10;;;5.80;99.90;;;;;;5062056;28;20893;-68
2024/03/06 06:02:28;;;;;;;11.93;5.30;;;5.80;99.90;;;;;;5058472;28;20467;-70
2024/03/06 06:04:56;;;;;;;14.03;5.57;;;5.80;99.90;;;;;;5058358;28;20471;-69
2024/03/06 06:07:44;;;;;;;11.93;5.10;;;5.70;99.90;;;;;;5061809;28;20457;-69
2024/03/06 06:10:12;;;;;;;14.13;6.20;;;5.70;99.90;;;;;;5066694;28;20463;-70
2024/03/06 06:12:42;;;;;;;14.30;5.40;;;5.60;99.90;;;;;;5058433;28;21018;-68
2024/03/06 06:15:12;;;;;;;12.30;5.93;;;5.70;99.90;;;;;;5066470;28;21027;-68
2024/03/06 06:17:43;;;;;;;15.13;5.20;;;5.70;99.90;;;;;;5062731;28;21018;-68
2024/03/06 06:20:14;;;;;;;15.50;5.77;;;5.80;99.90;;;;;;5062775;28;20998;-67
2024/03/06 06:22:44;;;;;;;12.50;5.50;;;5.80;99.90;;;;;;5059828;28;21042;-67
2024/03/06 06:25:12;;;;;;;14.57;6.03;;;5.80;99.90;;;;;;5065933;28;21065;-69
2024/03/06 06:27:40;;;;;;;12.13;4.70;;;5.70;99.90;;;;;;5067445;28;20485;-68
2024/03/06 06:30:11;;;;;;;12.27;4.87;;;5.70;99.90;;;;;;5066948;28;20448;-68
2024/03/06 06:32:42;;;;;;;11.83;5.47;;;5.70;99.90;;;;;;5063141;28;20505;-68
2024/03/06 06:35:13;;;;;;;14.83;5.17;;;5.70;99.90;;;;;;5067289;28;20466;-68
2024/03/06 06:37:42;;;;;;;14.10;5.10;;;5.80;99.90;;;;;;5067900;28;20499;-67
2024/03/06 06:40:12;;;;;;;13.13;5.43;;;5.80;99.90;;;;;;5061970;28;20508;-68
2024/03/06 06:42:47;;;;;;;13.67;5.47;;;5.80;99.90;;;;;;5067875;28;20521;-68
2024/03/06 06:45:15;;;;;;;15.97;5.50;;;5.80;99.90;;;;;;5065144;28;20489;-68
2024/03/06 06:47:45;;;;;;;12.63;5.27;;;5.70;99.90;;;;;;5067561;28;20441;-68
2024/03/06 06:50:13;;;;;;;11.77;4.97;;;5.80;99.90;;;;;;5064597;28;20445;-68
2024/03/06 06:52:41;;;;;;;14.03;7.47;;;5.80;99.90;;;;;;5062897;28;20488;-68
2024/03/06 06:55:11;;;;;;;17.37;5.20;;;5.80;99.90;;;;;;5066512;28;20461;-68
2024/03/06 06:57:39;;;;;;;11.90;4.50;;;5.90;99.90;;;;;;5064999;28;20444;-67
2024/03/06 07:00:11;;;;;;;16.33;5.70;;;5.90;99.90;;;;;;5067751;28;20443;-68
2024/03/06 07:02:40;;;;;;;15.57;6.63;;;5.90;99.90;;;;;;5059967;28;20475;-68
2024/03/06 07:05:11;;;;;;;14.87;6.20;;;6.00;99.90;;;;;;5068084;28;20446;-68
2024/03/06 07:07:40;;;;;;;12.07;5.63;;;6.00;99.90;;;;;;5067900;28;20470;-69
2024/03/06 07:10:09;;;;;;;16.27;5.90;;;6.00;99.90;;;;;;5059650;28;20455;-68
2024/03/06 07:12:37;;;;;;;16.43;5.90;;;5.90;99.90;;;;;;5059416;28;20479;-68
2024/03/06 07:15:06;;;;;;;15.07;6.20;;;6.00;99.90;;;;;;5067940;28;20451;-67
2024/03/06 07:17:34;;;;;;;12.27;6.20;;;6.00;99.90;;;;;;5067939;28;21114;-67
2024/03/06 07:20:05;;;;;;;12.40;6.70;;;6.10;99.90;;;;;;5068062;28;20448;-68
2024/03/06 07:22:34;;;;;;;12.90;6.70;;;6.10;99.90;;;;;;5067346;28;20845;-69
2024/03/06 07:25:02;;;;;;;14.73;7.10;;;6.10;99.90;;;;;;5067242;28;20498;-68
2024/03/06 07:27:30;;;;;;;13.77;6.50;;;6.20;99.90;;;;;;5067878;28;20447;-68
2024/03/06 07:29:59;;;;;;;12.60;5.50;;;6.20;99.90;;;;;;5067709;28;20466;-69
2024/03/06 07:32:26;;;;;;;17.43;5.60;;;6.30;99.90;;;;;;5067599;28;20549;-67
2024/03/06 07:34:55;;;;;;;12.50;5.40;;;6.30;99.90;;;;;;5067900;28;20451;-67
2024/03/06 07:37:23;;;;;;;13.13;5.67;;;6.20;99.90;;;;;;5067915;28;20444;-67
2024/03/06 07:39:52;;;;;;;13.47;5.43;;;6.20;99.90;;;;;;5067006;28;20459;-68
2024/03/06 07:42:21;;;;;;;12.17;5.57;;;6.20;99.90;;;;;;5067088;28;20476;-67
2024/03/06 07:44:49;;;;;;;12.90;6.07;;;6.30;99.90;;;;;;5067605;28;20496;-68
2024/03/06 07:47:17;;;;;;;17.23;6.50;;;6.40;99.90;;;;;;5063799;28;20442;-68
2024/03/06 07:49:46;;;;;;;12.60;5.53;;;6.40;99.90;;;;;;5062837;28;20458;-67
2024/03/06 07:52:13;;;;;;;27.73;8.00;;;6.40;99.90;;;;;;5063524;28;20469;-68
2024/03/06 07:54:41;;;;;;;14.10;5.70;;;6.50;99.90;;;;;;5062439;28;20439;-67
2024/03/06 07:57:11;;;;;;;18.43;5.83;;;6.40;99.90;;;;;;5062555;28;20991;-68
2024/03/06 07:59:39;;;;;;;15.97;6.63;;;6.40;99.90;;;;;;5059768;28;20553;-68
2024/03/06 08:02:07;;;;;;;19.70;7.27;;;6.50;99.90;;;;;;5060891;28;20450;-67
2024/03/06 08:04:36;;;;;;;14.43;6.97;;;6.50;99.90;;;;;;5062504;28;20492;-68
2024/03/06 08:07:04;;;;;;;18.57;6.57;;;6.50;99.90;;;;;;5065744;28;20502;-68
2024/03/06 08:09:32;;;;;;;17.07;6.70;;;6.50;99.90;;;;;;5066733;28;21054;-68
2024/03/06 08:12:00;;;;;;;16.93;8.40;;;6.50;99.90;;;;;;5065493;28;21023;-67
2024/03/06 08:14:30;;;;;;;15.53;6.50;;;6.50;99.90;;;;;;5047562;28;20964;-68
2024/03/06 08:16:58;;;;;;;19.80;8.20;;;6.50;99.90;;;;;;5064466;28;20555;-68
2024/03/06 08:19:26;;;;;;;17.03;7.23;;;6.60;99.90;;;;;;5066580;28;21009;-67
2024/03/06 08:21:54;;;;;;;14.87;5.83;;;6.60;99.90;;;;;;5066424;28;20442;-68
2024/03/06 08:24:22;;;;;;;13.13;6.10;;;6.70;99.90;;;;;;5066713;28;20483;-69
2024/03/06 08:26:50;;;;;;;13.50;6.00;;;6.70;99.90;;;;;;5066706;28;20471;-68
2024/03/06 08:29:18;;;;;;;11.10;5.23;;;6.60;99.90;;;;;;5056217;28;20563;-68
2024/03/06 08:31:48;;;;;;;13.90;5.87;;;6.70;99.90;;;;;;5046210;28;20565;-68
2024/03/06 08:34:17;;;;;;;14.30;5.50;;;6.70;99.90;;;;;;5046841;28;20447;-67
2024/03/06 08:36:46;;;;;;;11.67;5.17;;;6.70;99.90;;;;;;5046742;28;20467;-68
2024/03/06 08:39:16;;;;;;;14.03;6.00;;;6.70;99.90;;;;;;5046416;28;20528;-69
2024/03/06 08:41:44;;;;;;;11.50;6.00;;;6.80;99.90;;;;;;5046459;28;20469;-67
2024/03/06 08:44:12;;;;;;;14.87;5.93;;;6.70;99.90;;;;;;5052943;28;20461;-68
2024/03/06 08:46:40;;;;;;;15.67;6.17;;;6.60;99.90;;;;;;5058655;28;20457;-69
2024/03/06 08:49:10;;;;;;;10.67;5.67;;;6.60;99.90;;;;;;5066308;28;21010;-69
2024/03/06 08:51:38;;;;;;;12.10;6.00;;;6.60;99.90;;;;;;5066681;28;20960;-69
2024/03/06 08:54:07;;;;;;;14.23;6.03;;;6.50;99.90;;;;;;5070518;28;20458;-69
2024/03/06 08:56:37;;;;;;;16.63;6.87;;;6.50;99.90;;;;;;5070298;28;20819;-69
2024/03/06 08:59:05;;;;;;;16.00;7.40;;;6.50;99.90;;;;;;5070156;28;20548;-68
2024/03/06 09:01:33;;;;;;;14.23;7.50;;;6.60;99.90;;;;;;5058219;28;20462;-69
2024/03/06 09:04:01;;;;;;;16.97;7.10;;;6.70;99.90;;;;;;5050085;28;20507;-70
2024/03/06 09:06:31;;;;;;;16.20;8.67;;;6.60;99.90;;;;;;5049978;28;21175;-69
2024/03/06 09:08:59;;;;;;;17.53;7.63;;;6.60;99.90;;;;;;5049972;28;20474;-70
2024/03/06 09:11:27;;;;;;;15.03;7.27;;;6.60;99.90;;;;;;5049180;28;20972;-69
2024/03/06 09:13:55;;;;;;;13.30;7.93;;;6.80;99.90;;;;;;5050028;28;20582;-69
2024/03/06 09:16:23;;;;;;;14.00;7.63;;;6.80;99.90;;;;;;5061516;28;20488;-69
2024/03/06 09:18:51;;;;;;;15.40;7.73;;;6.80;99.90;;;;;;5069983;28;20473;-69
2024/03/06 09:21:19;;;;;;;14.13;7.87;;;6.60;99.90;;;;;;5069351;28;20468;-69
2024/03/06 09:23:51;;;;;;;18.93;9.00;;;6.60;99.90;;;;;;5069670;28;20927;-70
2024/03/06 09:26:20;;;;;;;18.30;8.23;;;6.70;99.90;;;;;;5069627;28;20488;-69
2024/03/06 09:28:49;;;;;;;15.93;8.50;;;6.70;99.90;;;;;;5070004;28;21048;-70
2024/03/06 09:31:17;;;;;;;15.23;8.13;;;6.70;99.90;;;;;;5069098;28;20461;-70
2024/03/06 09:33:46;;;;;;;14.57;8.90;;;6.70;99.90;;;;;;5069817;28;20493;-69
2024/03/06 09:36:14;;;;;;;15.03;8.10;;;6.60;99.90;;;;;;5070567;28;20450;-69
2024/03/06 09:38:42;;;;;;;13.83;7.90;;;6.60;99.90;;;;;;5069927;28;20558;-69
2024/03/06 09:41:12;;;;;;;16.00;8.33;;;6.70;99.90;;;;;;5068783;28;20960;-68
2024/03/06 09:43:41;;;;;;;14.83;8.37;;;6.70;99.90;;;;;;5069552;28;20524;-71
2024/03/06 09:46:09;;;;;;;14.40;8.07;;;6.90;99.90;;;;;;5069286;28;20832;-69
2024/03/06 09:48:43;;;;;;;16.90;8.60;;;6.80;99.90;;;;;;5068720;28;20466;-69
2024/03/06 09:51:12;;;;;;;16.50;8.03;;;6.70;99.90;;;;;;5068908;28;20447;-68
2024/03/06 09:53:41;;;;;;;16.23;9.23;;;6.80;99.90;;;;;;5069057;28;21011;-69
2024/03/06 09:56:11;;;;;;;18.37;10.47;;;6.70;99.90;;;;;;5069137;28;20846;-69
2024/03/06 09:58:39;;;;;;;15.97;10.00;;;6.60;99.90;;;;;;5069224;28;20471;-69
2024/03/06 10:01:08;;;;;;;17.47;10.00;;;6.60;99.90;;;;;;5069566;28;20985;-69
2024/03/06 10:03:37;;;;;;;19.17;10.67;;;6.60;99.90;;;;;;5070016;28;20503;-69
2024/03/06 10:06:06;;;;;;;18.03;10.90;;;6.60;99.90;;;;;;5071645;28;20444;-68
2024/03/06 10:08:43;;;;;;;21.70;12.83;;;6.60;99.90;;;;;;5070319;28;20472;-69
2024/03/06 10:11:13;;;;;;;20.20;10.97;;;6.60;99.90;;;;;;5069301;28;20989;-68
2024/03/06 10:13:41;;;;;;;18.60;12.17;;;6.70;99.90;;;;;;5069467;28;20477;-69
2024/03/06 10:16:11;;;;;;;23.27;11.97;;;6.80;99.90;;;;;;5069469;28;20920;-68
2024/03/06 10:18:39;;;;;;;21.43;12.87;;;6.80;99.90;;;;;;5069227;28;20470;-69
2024/03/06 10:21:07;;;;;;;19.30;12.73;;;6.80;99.90;;;;;;5053967;28;20947;-69
2024/03/06 10:23:37;;;;;;;25.73;13.73;;;6.90;99.90;;;;;;5049807;28;20853;-69
2024/03/06 10:26:09;;;;;;;19.00;11.63;;;6.90;99.90;;;;;;5049651;28;20459;-68
2024/03/06 10:28:38;;;;;;;20.93;12.83;;;7.00;99.90;;;;;;5049236;28;20477;-69
2024/03/06 10:31:07;;;;;;;21.03;12.70;;;7.10;99.90;;;;;;5048991;28;20492;-68
2024/03/06 10:33:37;;;;;;;20.40;13.67;;;7.10;99.90;;;;;;5048936;28;20493;-68
2024/03/06 10:36:06;;;;;;;23.97;13.80;;;7.00;99.90;;;;;;5063011;28;20460;-67
2024/03/06 10:38:39;;;;;;;22.80;13.83;;;7.00;99.90;;;;;;5069033;28;20462;-68
2024/03/06 10:41:13;;;;;;;23.33;12.80;;;7.00;99.90;;;;;;5068867;28;20467;-68
2024/03/06 10:43:46;;;;;;;20.67;12.97;;;7.00;99.90;;;;;;5068856;28;20448;-68
2024/03/06 10:46:17;;;;;;;23.03;13.10;;;6.90;99.90;;;;;;5068971;28;20454;-67
2024/03/06 10:48:46;;;;;;;26.10;15.43;;;6.90;99.90;;;;;;5068726;28;20466;-68
2024/03/06 10:51:15;;;;;;;27.60;15.60;;;6.90;99.90;;;;;;5068157;28;20475;-67
2024/03/06 10:53:46;;;;;;;29.00;16.07;;;6.90;99.90;;;;;;5069247;28;20489;-68
2024/03/06 10:56:14;;;;;;;25.80;15.10;;;6.90;99.90;;;;;;5069310;28;20442;-67
2024/03/06 10:58:46;;;;;;;27.50;14.73;;;6.80;99.90;;;;;;5060560;28;20511;-67
2024/03/06 11:01:14;;;;;;;25.63;16.63;;;6.70;99.90;;;;;;5068352;28;20474;-67
2024/03/06 11:03:47;;;;;;;26.77;16.77;;;6.80;99.90;;;;;;5068756;28;20457;-68
2024/03/06 11:06:15;;;;;;;32.20;18.00;;;6.90;99.90;;;;;;5068177;28;20451;-68
2024/03/06 11:08:43;;;;;;;25.53;16.80;;;7.00;99.90;;;;;;5068725;28;20478;-67
2024/03/06 11:11:21;;;;;;;25.00;16.50;;;7.00;99.90;;;;;;5068282;28;20443;-66
2024/03/06 11:13:54;;;;;;;28.87;16.10;;;7.10;99.90;;;;;;5068349;28;20493;-68
2024/03/06 11:16:28;;;;;;;27.00;15.93;;;7.30;99.90;;;;;;5067865;28;20537;-68
2024/03/06 11:19:07;;;;;;;27.57;16.03;;;7.40;99.90;;;;;;5068692;28;20491;-68
2024/03/06 11:21:35;;;;;;;23.60;14.00;;;7.50;99.90;;;;;;5067910;28;21079;-67
2024/03/06 11:24:19;;;;;;;24.60;14.20;;;7.50;99.90;;;;;;5062746;28;20441;-67
2024/03/06 11:26:48;;;;;;;25.10;15.20;;;7.40;99.90;;;;;;5068045;28;20482;-68
2024/03/06 11:29:21;;;;;;;24.47;13.97;;;7.30;99.90;;;;;;5067826;28;20516;-67
2024/03/06 11:32:10;;;;;;;28.03;14.53;;;7.20;99.90;;;;;;5067941;28;20457;-68
2024/03/06 11:34:38;;;;;;;27.30;13.93;;;7.20;99.90;;;;;;5067938;28;20483;-67
2024/03/06 11:37:09;;;;;;;28.93;16.80;;;7.20;99.90;;;;;;5067769;28;20927;-67
2024/03/06 11:39:39;;;;;;;28.10;16.20;;;7.20;99.90;;;;;;5055341;28;20922;-67
2024/03/06 11:42:08;;;;;;;28.70;16.40;;;7.40;99.90;;;;;;5048198;28;20447;-67
2024/03/06 11:44:53;;;;;;;29.53;15.67;;;7.40;99.90;;;;;;5048171;28;21012;-67
2024/03/06 11:47:21;;;;;;;24.80;14.47;;;7.40;99.90;;;;;;5054500;28;20639;-67
2024/03/06 11:49:51;;;;;;;28.50;16.10;;;7.40;99.90;;;;;;5047751;28;20490;-67
2024/03/06 11:52:19;;;;;;;27.17;15.53;;;7.40;99.90;;;;;;5047737;28;20440;-67
2024/03/06 11:54:47;;;;;;;27.13;15.27;;;7.40;99.90;;;;;;5059142;28;20486;-67
2024/03/06 11:57:16;;;;;;;26.00;15.20;;;7.40;99.90;;;;;;5067828;28;20455;-67
2024/03/06 11:59:46;;;;;;;29.10;16.33;;;7.50;99.90;;;;;;5067642;28;20466;-67
2024/03/06 12:02:14;;;;;;;28.03;15.97;;;7.60;99.90;;;;;;5067529;28;20466;-67
2024/03/06 12:04:42;;;;;;;24.17;13.73;;;7.60;99.90;;;;;;5067961;28;20450;-66
2024/03/06 12:07:10;;;;;;;29.37;15.60;;;7.60;99.90;;;;;;5060842;28;20459;-67
2024/03/06 12:09:40;;;;;;;27.07;15.67;;;7.70;99.90;;;;;;5066138;28;20482;-67
2024/03/06 12:12:11;;;;;;;25.20;15.03;;;7.70;99.90;;;;;;5067422;28;20443;-67
2024/03/06 12:14:40;;;;;;;22.47;13.17;;;7.70;99.90;;;;;;5067169;28;20514;-66
2024/03/06 12:17:14;;;;;;;28.37;16.23;;;7.60;99.90;;;;;;5067558;28;20464;-66
2024/03/06 12:19:44;;;;;;;26.80;16.07;;;7.50;99.90;;;;;;5067046;28;21025;-66
2024/03/06 12:22:14;;;;;;;22.80;13.00;;;7.50;99.90;;;;;;5066900;28;20454;-66
2024/03/06 12:24:42;;;;;;;26.77;14.67;;;7.60;99.90;;;;;;5066799;28;20442;-67
2024/03/06 12:27:12;;;;;;;27.20;16.30;;;7.60;99.90;;;;;;5067631;28;20490;-67
2024/03/06 12:29:41;;;;;;;29.13;15.83;;;7.70;99.90;;;;;;5070604;28;20479;-65
2024/03/06 12:32:19;;;;;;;25.10;15.07;;;7.80;99.90;;;;;;5071075;28;20461;-67
2024/03/06 12:34:58;;;;;;;28.07;15.70;;;7.60;99.90;;;;;;5070638;28;20490;-67
2024/03/06 12:37:31;;;;;;;26.00;16.03;;;7.60;99.90;;;;;;5070419;28;20470;-67
2024/03/06 12:40:05;;;;;;;30.33;15.57;;;7.50;99.90;;;;;;5070516;28;20469;-66
2024/03/06 12:42:33;;;;;;;30.40;16.40;;;7.50;99.90;;;;;;5069749;28;20457;-66
2024/03/06 12:45:03;;;;;;;30.90;16.60;;;7.50;99.90;;;;;;5070290;28;20455;-68
2024/03/06 12:47:32;;;;;;;30.07;17.77;;;7.50;99.90;;;;;;5068438;28;20785;-67
2024/03/06 12:50:01;;;;;;;35.07;20.67;;;7.50;99.90;;;;;;5065395;28;20459;-67
2024/03/06 12:52:29;;;;;;;31.77;19.40;;;7.50;99.90;;;;;;5066770;28;20970;-67
2024/03/06 12:54:57;;;;;;;34.97;20.53;;;7.50;99.90;;;;;;5066181;28;20481;-67
2024/03/06 12:57:25;;;;;;;30.07;19.47;;;7.60;99.90;;;;;;5065488;28;20562;-67
2024/03/06 12:59:53;;;;;;;31.60;17.27;;;7.50;99.90;;;;;;5065360;28;21099;-67
2024/03/06 13:02:21;;;;;;;30.70;17.77;;;7.50;99.90;;;;;;5068227;28;20817;-68